createdAt,value
2022-11-28T00:01:14.386Z,13.50
2022-11-28T00:03:40.896Z,13.40
2022-11-28T00:06:07.675Z,13.50
2022-11-28T00:08:34.215Z,13.50
2022-11-28T00:11:00.698Z,13.50
2022-11-28T00:13:27.177Z,13.60
2022-11-28T00:15:53.723Z,13.40
2022-11-28T00:18:20.253Z,13.50
2022-11-28T00:20:46.717Z,13.50
2022-11-28T00:23:13.176Z,13.60
2022-11-28T00:25:39.679Z,13.60
2022-11-28T00:28:06.169Z,13.60
2022-11-28T00:30:32.652Z,13.40
2022-11-28T00:32:59.111Z,13.50
2022-11-28T00:35:25.565Z,13.60
2022-11-28T00:37:52.033Z,13.60
2022-11-28T00:40:18.503Z,13.50
2022-11-28T00:42:44.977Z,13.50
2022-11-28T00:45:11.448Z,13.50
2022-11-28T00:47:37.928Z,13.50
2022-11-28T00:50:04.400Z,13.40
2022-11-28T00:52:30.867Z,13.40
2022-11-28T00:54:57.339Z,13.40
2022-11-28T00:57:23.791Z,13.50
2022-11-28T00:59:50.245Z,13.50
2022-11-28T01:02:16.781Z,13.60
2022-11-28T01:04:43.539Z,13.40
2022-11-28T01:07:10.251Z,13.40
2022-11-28T01:09:36.698Z,13.50
2022-11-28T01:12:03.151Z,13.50
2022-11-28T01:14:37.151Z,13.50
2022-11-28T01:17:03.611Z,13.50
2022-11-28T01:19:30.284Z,13.60
2022-11-28T01:21:56.748Z,13.10
2022-11-28T01:24:23.221Z,13.50
2022-11-28T01:26:49.752Z,13.50
2022-11-28T01:29:16.262Z,13.50
2022-11-28T01:31:42.734Z,13.60
2022-11-28T01:34:09.224Z,13.50
2022-11-28T01:36:35.686Z,13.50
2022-11-28T01:39:02.146Z,13.50
2022-11-28T01:41:28.621Z,13.60
2022-11-28T01:43:55.080Z,13.70
2022-11-28T01:46:23.742Z,13.70
2022-11-28T01:48:50.253Z,13.60
2022-11-28T01:51:16.708Z,13.50
2022-11-28T01:53:43.204Z,13.50
2022-11-28T01:56:09.715Z,13.60
2022-11-28T01:58:36.174Z,13.50
2022-11-28T02:01:02.696Z,13.40
2022-11-28T02:03:29.208Z,13.60
2022-11-28T02:05:55.678Z,13.70
2022-11-28T02:08:22.152Z,13.70
2022-11-28T02:10:48.623Z,13.60
2022-11-28T02:13:15.098Z,13.70
2022-11-28T02:15:41.612Z,13.60
2022-11-28T02:18:08.099Z,13.50
2022-11-28T02:20:36.887Z,13.50
2022-11-28T02:23:03.352Z,13.60
2022-11-28T02:25:29.826Z,13.50
2022-11-28T02:27:56.265Z,13.60
2022-11-28T02:30:22.770Z,13.50
2022-11-28T02:32:49.227Z,13.50
2022-11-28T02:35:15.712Z,13.50
2022-11-28T02:37:42.273Z,13.50
2022-11-28T02:40:08.744Z,13.60
2022-11-28T02:42:35.254Z,13.60
2022-11-28T02:45:01.790Z,13.60
2022-11-28T02:47:28.234Z,13.60
2022-11-28T02:49:54.695Z,13.40
2022-11-28T02:52:21.174Z,13.60
2022-11-28T02:54:47.625Z,13.60
2022-11-28T02:57:14.112Z,13.60
2022-11-28T02:59:40.558Z,13.60
2022-11-28T03:02:07.066Z,13.60
2022-11-28T03:04:33.547Z,13.50
2022-11-28T03:07:00.008Z,13.50
2022-11-28T03:09:26.490Z,13.60
2022-11-28T03:11:52.959Z,13.50
2022-11-28T03:14:19.407Z,13.60
2022-11-28T03:16:45.939Z,13.40
2022-11-28T03:19:12.419Z,13.40
2022-11-28T03:21:38.902Z,13.50
2022-11-28T03:24:05.368Z,13.50
2022-11-28T03:26:31.823Z,13.50
2022-11-28T03:28:58.283Z,13.60
2022-11-28T03:31:24.795Z,13.20
2022-11-28T03:33:51.311Z,13.00
2022-11-28T03:36:17.767Z,13.10
2022-11-28T03:38:44.224Z,13.30
2022-11-28T03:41:10.690Z,13.10
2022-11-28T03:43:37.262Z,13.20
2022-11-28T03:46:03.748Z,13.20
2022-11-28T03:48:30.195Z,13.10
2022-11-28T03:50:56.662Z,13.30
2022-11-28T03:53:23.134Z,13.40
2022-11-28T03:55:49.683Z,13.40
2022-11-28T03:58:23.679Z,13.40
2022-11-28T04:00:50.218Z,13.30
2022-11-28T04:03:16.724Z,13.50
2022-11-28T04:05:43.224Z,13.50
2022-11-28T04:08:09.690Z,13.60
2022-11-28T04:10:36.140Z,13.40
2022-11-28T04:13:02.619Z,13.40
2022-11-28T04:15:29.086Z,13.50
2022-11-28T04:17:55.640Z,13.50
2022-11-28T04:20:22.093Z,13.50
2022-11-28T04:22:48.554Z,13.60
2022-11-28T04:25:15.008Z,13.60
2022-11-28T04:27:41.484Z,13.50
2022-11-28T04:30:07.952Z,13.50
2022-11-28T04:32:34.408Z,13.40
2022-11-28T04:35:00.870Z,13.30
2022-11-28T04:37:27.344Z,13.40
2022-11-28T04:39:53.794Z,13.40
2022-11-28T04:42:20.248Z,13.50
2022-11-28T04:44:46.721Z,13.40
2022-11-28T04:47:14.136Z,13.40
2022-11-28T04:49:40.608Z,13.50
2022-11-28T04:52:07.093Z,13.50
2022-11-28T04:54:33.574Z,13.60
2022-11-28T04:57:00.066Z,13.50
2022-11-28T04:59:26.511Z,13.60
2022-11-28T05:01:53.057Z,13.50
2022-11-28T05:04:20.034Z,13.60
2022-11-28T05:06:46.521Z,13.50
2022-11-28T05:09:12.993Z,13.50
2022-11-28T05:11:39.525Z,13.60
2022-11-28T05:14:05.984Z,13.60
2022-11-28T05:16:32.760Z,13.50
2022-11-28T05:18:59.283Z,13.60
2022-11-28T05:21:25.725Z,13.70
2022-11-28T05:23:52.195Z,13.60
2022-11-28T05:26:18.675Z,13.60
2022-11-28T05:28:45.167Z,13.60
2022-11-28T05:31:11.687Z,13.60
2022-11-28T05:33:38.326Z,13.60
2022-11-28T05:36:08.612Z,13.50
2022-11-28T05:38:38.971Z,13.40
2022-11-28T05:41:05.447Z,13.50
2022-11-28T05:43:31.916Z,13.30
2022-11-28T05:45:58.518Z,13.00
2022-11-28T05:48:25.033Z,13.30
2022-11-28T05:50:51.491Z,13.40
2022-11-28T05:53:17.978Z,13.40
2022-11-28T05:55:44.448Z,13.40
2022-11-28T05:58:10.939Z,13.40
2022-11-28T06:00:37.493Z,13.40
2022-11-28T06:03:03.946Z,13.40
2022-11-28T06:05:42.106Z,13.60
2022-11-28T06:08:09.543Z,13.70
2022-11-28T06:10:35.992Z,13.40
2022-11-28T06:13:06.106Z,13.50
2022-11-28T06:15:36.158Z,13.60
2022-11-28T06:18:04.217Z,13.60
2022-11-28T06:20:30.671Z,13.70
2022-11-28T06:22:57.151Z,13.60
2022-11-28T06:25:30.180Z,13.60
2022-11-28T06:27:56.634Z,13.60
2022-11-28T06:30:23.094Z,13.40
2022-11-28T06:32:49.569Z,13.50
2022-11-28T06:35:16.046Z,13.50
2022-11-28T06:37:42.516Z,13.50
2022-11-28T06:40:09.001Z,13.50
2022-11-28T06:42:35.481Z,13.60
2022-11-28T06:45:01.979Z,13.80
2022-11-28T06:47:28.449Z,13.70
2022-11-28T06:49:54.965Z,13.50
2022-11-28T06:52:21.435Z,13.50
2022-11-28T06:54:47.931Z,13.50
2022-11-28T06:57:14.386Z,13.50
2022-11-28T06:59:41.119Z,13.50
2022-11-28T07:02:08.254Z,13.50
2022-11-28T07:04:34.814Z,13.10
2022-11-28T07:07:01.301Z,13.50
2022-11-28T07:09:27.968Z,13.40
2022-11-28T07:11:54.441Z,13.40
2022-11-28T07:14:21.250Z,13.40
2022-11-28T07:16:47.776Z,13.50
2022-11-28T07:19:14.277Z,13.60
2022-11-28T07:21:40.743Z,13.40
2022-11-28T07:24:07.291Z,13.40
2022-11-28T07:26:33.755Z,13.50
2022-11-28T07:29:00.215Z,13.40
2022-11-28T07:31:26.828Z,13.50
2022-11-28T07:33:53.343Z,13.30
2022-11-28T07:36:19.806Z,13.30
2022-11-28T07:38:46.273Z,13.30
2022-11-28T07:41:12.761Z,13.40
2022-11-28T07:43:39.240Z,13.50
2022-11-28T07:46:05.768Z,13.60
2022-11-28T07:48:32.281Z,13.50
2022-11-28T07:50:58.908Z,13.40
2022-11-28T07:53:25.366Z,13.50
2022-11-28T07:55:51.831Z,13.60
2022-11-28T07:58:18.323Z,13.60
2022-11-28T08:00:44.803Z,13.70
2022-11-28T08:03:11.287Z,13.40
2022-11-28T08:05:37.780Z,13.40
2022-11-28T08:08:04.285Z,13.60
2022-11-28T08:10:30.807Z,13.60
2022-11-28T08:12:57.260Z,13.60
2022-11-28T08:15:23.761Z,13.70
2022-11-28T08:17:50.227Z,13.70
2022-11-28T08:20:16.728Z,13.60
2022-11-28T08:22:43.187Z,13.40
2022-11-28T08:25:09.705Z,13.40
2022-11-28T08:27:36.160Z,13.40
2022-11-28T08:30:02.647Z,13.50
2022-11-28T08:32:29.103Z,13.50
2022-11-28T08:34:55.554Z,13.50
2022-11-28T08:37:22.026Z,13.40
2022-11-28T08:39:48.566Z,13.50
2022-11-28T08:42:15.031Z,13.50
2022-11-28T08:44:41.493Z,13.40
2022-11-28T08:47:07.975Z,13.30
2022-11-28T08:49:34.456Z,13.30
2022-11-28T08:52:00.921Z,13.60
2022-11-28T08:54:27.348Z,13.70
2022-11-28T08:56:53.820Z,13.50
2022-11-28T08:59:20.284Z,13.40
2022-11-28T09:01:46.802Z,13.40
2022-11-28T09:04:13.373Z,13.40
2022-11-28T09:06:39.869Z,13.50
2022-11-28T09:09:12.078Z,13.50
2022-11-28T09:11:38.592Z,13.50
2022-11-28T09:14:05.068Z,13.40
2022-11-28T09:16:31.647Z,13.40
2022-11-28T09:18:58.212Z,13.30
2022-11-28T09:21:24.676Z,13.40
2022-11-28T09:23:51.131Z,13.30
2022-11-28T09:26:17.623Z,13.40
2022-11-28T09:28:44.099Z,13.50
2022-11-28T09:31:10.641Z,13.40
2022-11-28T09:33:37.198Z,13.30
2022-11-28T09:36:03.710Z,13.20
2022-11-28T09:38:30.193Z,13.20
2022-11-28T09:40:56.678Z,13.20
2022-11-28T09:43:23.122Z,13.10
2022-11-28T09:45:49.616Z,13.40
2022-11-28T09:48:16.113Z,13.60
2022-11-28T09:50:42.596Z,13.30
2022-11-28T09:53:09.045Z,13.40
2022-11-28T09:55:35.592Z,13.40
2022-11-28T09:58:02.055Z,13.40
2022-11-28T10:00:28.524Z,13.40
2022-11-28T10:02:54.992Z,13.60
2022-11-28T10:05:21.435Z,13.40
2022-11-28T10:07:52.237Z,13.40
2022-11-28T10:10:21.198Z,13.30
2022-11-28T10:12:47.685Z,13.30
2022-11-28T10:15:16.970Z,13.30
2022-11-28T10:17:43.496Z,13.50
2022-11-28T10:20:09.953Z,13.50
2022-11-28T10:22:36.416Z,13.40
2022-11-28T10:25:02.883Z,13.50
2022-11-28T10:27:29.340Z,13.60
2022-11-28T10:29:55.792Z,13.70
2022-11-28T10:32:22.378Z,13.50
2022-11-28T10:34:48.897Z,13.40
2022-11-28T10:37:15.460Z,13.40
2022-11-28T10:39:42.293Z,13.50
2022-11-28T10:42:08.897Z,13.50
2022-11-28T10:44:35.347Z,13.40
2022-11-28T10:47:01.831Z,13.50
2022-11-28T10:49:28.286Z,13.40
2022-11-28T10:51:54.767Z,13.50
2022-11-28T10:54:21.237Z,13.50
2022-11-28T10:56:47.725Z,13.50
2022-11-28T10:59:14.190Z,13.20
2022-11-28T11:01:42.064Z,13.30
2022-11-28T11:04:10.312Z,13.30
2022-11-28T11:06:47.691Z,13.30
2022-11-28T11:09:23.286Z,13.50
2022-11-28T11:11:49.780Z,13.40
2022-11-28T11:14:16.344Z,13.40
2022-11-28T11:16:42.848Z,13.50
2022-11-28T11:19:09.318Z,13.40
2022-11-28T11:21:35.801Z,13.30
2022-11-28T11:24:02.253Z,13.30
2022-11-28T11:26:28.704Z,13.20
2022-11-28T11:28:55.149Z,13.20
2022-11-28T11:31:21.660Z,13.30
2022-11-28T11:33:48.183Z,13.40
2022-11-28T11:36:17.239Z,13.50
2022-11-28T11:38:43.685Z,13.40
2022-11-28T11:41:10.180Z,13.40
2022-11-28T11:43:36.641Z,13.20
2022-11-28T11:46:03.163Z,13.20
2022-11-28T11:48:29.655Z,13.20
2022-11-28T11:50:56.185Z,13.30
2022-11-28T11:53:23.392Z,13.40
2022-11-28T11:55:49.870Z,13.40
2022-11-28T11:58:16.339Z,13.40
2022-11-28T12:00:42.813Z,13.30
2022-11-28T12:03:09.358Z,13.40
2022-11-28T12:05:52.749Z,13.30
2022-11-28T12:08:22.333Z,13.50
2022-11-28T12:10:48.793Z,13.60
2022-11-28T12:13:15.274Z,13.40
2022-11-28T12:15:41.791Z,13.40
2022-11-28T12:18:08.304Z,13.40
2022-11-28T12:20:34.780Z,13.40
2022-11-28T12:23:01.259Z,13.50
2022-11-28T12:25:27.791Z,13.40
2022-11-28T12:27:54.292Z,13.40
2022-11-28T12:30:20.791Z,13.30
2022-11-28T12:32:47.250Z,13.30
2022-11-28T12:35:13.752Z,13.20
2022-11-28T12:38:09.703Z,13.50
2022-11-28T12:40:32.410Z,13.50
2022-11-28T12:42:58.972Z,13.30
2022-11-28T12:45:25.436Z,13.20
2022-11-28T12:47:51.907Z,13.30
2022-11-28T12:50:18.377Z,13.30
2022-11-28T12:52:44.859Z,13.40
2022-11-28T12:55:11.373Z,13.30
2022-11-28T12:57:37.926Z,13.30
2022-11-28T13:00:08.752Z,13.40
2022-11-28T13:02:35.986Z,13.30
2022-11-28T13:05:02.622Z,13.40
2022-11-28T13:07:29.144Z,13.40
2022-11-28T13:09:55.835Z,13.50
2022-11-28T13:12:22.304Z,13.60
2022-11-28T13:14:49.131Z,13.40
2022-11-28T13:17:15.701Z,13.50
2022-11-28T13:19:42.184Z,13.60
2022-11-28T13:22:08.885Z,13.50
2022-11-28T13:24:35.367Z,13.60
2022-11-28T13:27:01.821Z,13.60
2022-11-28T13:29:28.325Z,13.70
2022-11-28T13:32:00.351Z,13.70
2022-11-28T13:34:28.362Z,13.60
2022-11-28T13:39:42.298Z,13.40
2022-11-28T13:44:55.251Z,13.60
2022-11-28T13:47:30.483Z,13.60
2022-11-28T13:49:56.965Z,13.70
2022-11-28T13:52:23.441Z,13.60
2022-11-28T13:54:50.058Z,13.70
2022-11-28T13:57:16.555Z,13.50
2022-11-28T13:59:43.063Z,13.40
2022-11-28T14:02:09.570Z,13.50
2022-11-28T14:04:36.070Z,13.50
2022-11-28T14:07:02.533Z,13.50
2022-11-28T14:09:29.006Z,13.70
2022-11-28T14:11:55.463Z,13.60
2022-11-28T14:14:21.920Z,13.60
2022-11-28T14:16:51.988Z,13.60
2022-11-28T14:19:18.734Z,13.60
2022-11-28T14:21:45.191Z,13.40
2022-11-28T14:24:11.657Z,13.60
2022-11-28T14:26:38.193Z,13.50
2022-11-28T14:29:04.684Z,13.60
2022-11-28T14:31:31.228Z,13.60
2022-11-28T14:33:57.697Z,13.60
2022-11-28T14:36:24.499Z,13.60
2022-11-28T14:38:50.947Z,13.50
2022-11-28T14:41:17.423Z,13.60
2022-11-28T14:43:43.872Z,13.60
2022-11-28T14:46:10.372Z,13.50
2022-11-28T14:48:36.927Z,13.30
2022-11-28T14:51:03.458Z,13.20
2022-11-28T14:53:29.942Z,13.30
2022-11-28T14:55:56.425Z,13.20
2022-11-28T14:58:22.888Z,13.10
2022-11-28T15:00:49.390Z,13.20
2022-11-28T15:03:15.968Z,13.40
2022-11-28T15:05:42.544Z,13.60
2022-11-28T15:08:09.001Z,13.50
2022-11-28T15:10:35.458Z,13.60
2022-11-28T15:13:01.921Z,13.60
2022-11-28T15:15:28.380Z,13.60
2022-11-28T15:17:54.906Z,13.60
2022-11-28T15:20:21.371Z,13.50
2022-11-28T15:22:47.837Z,13.40
2022-11-28T15:25:14.302Z,13.50
2022-11-28T15:27:40.767Z,13.50
2022-11-28T15:30:07.243Z,13.50
2022-11-28T15:32:33.695Z,13.50
2022-11-28T15:35:00.151Z,13.50
2022-11-28T15:37:26.687Z,13.60
2022-11-28T15:39:53.140Z,13.50
2022-11-28T15:42:19.639Z,13.60
2022-11-28T15:44:46.089Z,13.50
2022-11-28T15:47:12.564Z,13.60
2022-11-28T15:49:39.044Z,13.50
2022-11-28T15:52:05.506Z,13.40
2022-11-28T15:54:31.971Z,13.60
2022-11-28T15:56:58.460Z,13.50
2022-11-28T15:59:24.932Z,13.50
2022-11-28T16:01:56.155Z,13.30
2022-11-28T16:04:25.472Z,13.40
2022-11-28T16:06:51.935Z,13.50
2022-11-28T16:09:18.410Z,13.60
2022-11-28T16:11:44.876Z,13.60
2022-11-28T16:14:11.353Z,13.60
2022-11-28T16:16:38.022Z,13.60
2022-11-28T16:19:04.562Z,13.40
2022-11-28T16:21:31.019Z,13.30
2022-11-28T16:23:57.468Z,13.30
2022-11-28T16:26:23.944Z,13.40
2022-11-28T16:28:50.421Z,13.40
2022-11-28T16:31:19.686Z,13.40
2022-11-28T16:33:46.218Z,13.20
2022-11-28T16:36:12.707Z,13.30
2022-11-28T16:38:39.182Z,13.20
2022-11-28T16:41:05.646Z,13.00
2022-11-28T16:43:32.108Z,13.20
2022-11-28T16:45:58.644Z,13.10
2022-11-28T16:48:25.191Z,13.10
2022-11-28T16:50:51.646Z,13.20
2022-11-28T16:53:18.156Z,13.30
2022-11-28T16:55:44.720Z,13.30
2022-11-28T16:58:11.230Z,13.30
2022-11-28T17:00:37.712Z,13.20
2022-11-28T17:03:04.222Z,13.20
2022-11-28T17:05:30.688Z,13.10
2022-11-28T17:07:57.249Z,13.20
2022-11-28T17:10:23.753Z,13.10
2022-11-28T17:12:50.237Z,13.00
2022-11-28T17:15:16.718Z,13.20
2022-11-28T17:17:43.196Z,13.10
2022-11-28T17:20:10.559Z,13.30
2022-11-28T17:22:40.769Z,13.20
2022-11-28T17:25:07.697Z,13.30
2022-11-28T17:27:34.179Z,13.10
2022-11-28T17:30:00.678Z,13.10
2022-11-28T17:32:27.153Z,13.20
2022-11-28T17:34:53.636Z,13.00
2022-11-28T17:37:20.112Z,13.00
2022-11-28T17:39:46.587Z,13.10
2022-11-28T17:42:15.897Z,12.90
2022-11-28T17:44:42.715Z,12.80
2022-11-28T17:47:09.424Z,13.10
2022-11-28T17:49:35.895Z,13.20
2022-11-28T17:52:02.336Z,13.20
2022-11-28T17:54:28.809Z,13.30
2022-11-28T17:56:55.278Z,13.30
2022-11-28T17:59:21.976Z,13.30
2022-11-28T18:01:48.430Z,13.30
2022-11-28T18:04:14.927Z,13.50
2022-11-28T18:06:41.468Z,13.50
2022-11-28T18:09:11.869Z,13.30
2022-11-28T18:11:38.687Z,13.20
2022-11-28T18:14:05.164Z,13.20
2022-11-28T18:16:31.657Z,13.00
2022-11-28T18:18:58.210Z,13.10
2022-11-28T18:21:24.665Z,13.00
2022-11-28T18:23:52.306Z,13.10
2022-11-28T18:26:18.782Z,13.00
2022-11-28T18:28:45.245Z,13.00
2022-11-28T18:31:11.734Z,13.20
2022-11-28T18:33:38.228Z,13.20
2022-11-28T18:36:04.709Z,13.10
2022-11-28T18:38:31.167Z,13.10
2022-11-28T18:40:57.627Z,13.20
2022-11-28T18:43:26.340Z,13.00
2022-11-28T18:45:52.850Z,13.00
2022-11-28T18:48:19.311Z,12.90
2022-11-28T18:50:45.762Z,13.00
2022-11-28T18:53:12.205Z,12.80
2022-11-28T18:55:38.676Z,13.10
2022-11-28T18:58:05.156Z,13.00
2022-11-28T19:00:31.635Z,13.00
2022-11-28T19:02:58.087Z,13.00
2022-11-28T19:05:24.563Z,13.10
2022-11-28T19:07:51.078Z,13.10
2022-11-28T19:10:17.572Z,13.00
2022-11-28T19:12:49.886Z,13.10
2022-11-28T19:15:17.652Z,13.00
2022-11-28T19:17:44.145Z,13.00
2022-11-28T19:20:10.616Z,12.90
2022-11-28T19:22:37.077Z,13.00
2022-11-28T19:25:03.561Z,13.00
2022-11-28T19:27:30.031Z,13.00
2022-11-28T19:29:56.490Z,13.00
2022-11-28T19:32:22.982Z,13.00
2022-11-28T19:34:49.457Z,13.10
2022-11-28T19:37:15.953Z,13.20
2022-11-28T19:39:42.689Z,13.10
2022-11-28T19:42:09.310Z,13.10
2022-11-28T19:44:35.774Z,13.10
2022-11-28T19:47:02.237Z,13.00
2022-11-28T19:49:28.686Z,13.20
2022-11-28T19:51:55.170Z,13.20
2022-11-28T19:54:21.756Z,13.20
2022-11-28T19:56:48.270Z,13.20
2022-11-28T19:59:14.754Z,13.30
2022-11-28T20:01:41.289Z,13.10
2022-11-28T20:04:08.324Z,13.00
2022-11-28T20:06:34.800Z,13.20
2022-11-28T20:09:01.281Z,13.20
2022-11-28T20:11:27.745Z,13.10
2022-11-28T20:13:54.207Z,13.10
2022-11-28T20:16:20.696Z,13.00
2022-11-28T20:18:47.169Z,13.20
2022-11-28T20:21:14.646Z,13.20
2022-11-28T20:23:41.106Z,13.30
2022-11-28T20:26:07.575Z,13.20
2022-11-28T20:28:34.025Z,13.10
2022-11-28T20:31:00.491Z,13.10
2022-11-28T20:33:26.949Z,13.10
2022-11-28T20:35:58.438Z,13.10
2022-11-28T20:38:26.382Z,13.10
2022-11-28T20:40:52.841Z,13.10
2022-11-28T20:43:19.305Z,13.10
2022-11-28T20:45:45.802Z,13.00
2022-11-28T20:48:12.266Z,13.20
2022-11-28T20:50:38.720Z,13.30
2022-11-28T20:53:08.335Z,13.20
2022-11-28T20:55:34.821Z,13.10
2022-11-28T20:58:01.299Z,13.20
2022-11-28T21:00:27.776Z,13.30
2022-11-28T21:02:54.222Z,13.20
2022-11-28T21:05:20.702Z,13.20
2022-11-28T21:07:47.207Z,13.20
2022-11-28T21:10:13.737Z,13.30
2022-11-28T21:12:40.203Z,13.30
2022-11-28T21:15:06.674Z,13.30
2022-11-28T21:17:33.145Z,13.10
2022-11-28T21:19:59.603Z,13.20
2022-11-28T21:22:26.062Z,13.30
2022-11-28T21:24:52.527Z,13.20
2022-11-28T21:27:18.989Z,13.20
2022-11-28T21:29:45.774Z,13.30
2022-11-28T21:32:12.459Z,13.20
2022-11-28T21:34:38.932Z,13.10
2022-11-28T21:37:05.404Z,13.20
2022-11-28T21:39:31.858Z,13.20
2022-11-28T21:41:58.316Z,13.20
2022-11-28T21:44:24.815Z,13.20
2022-11-28T21:46:51.299Z,13.10
2022-11-28T21:49:17.748Z,13.10
2022-11-28T21:51:44.282Z,13.10
2022-11-28T21:54:10.763Z,13.20
2022-11-28T21:56:37.230Z,13.20
2022-11-28T21:59:03.687Z,13.20
2022-11-28T22:01:30.234Z,13.20
2022-11-28T22:06:43.195Z,13.10
2022-11-28T22:09:10.036Z,13.10
2022-11-28T22:11:36.696Z,13.10
2022-11-28T22:14:03.208Z,13.20
2022-11-28T22:16:29.806Z,13.10
2022-11-28T22:18:56.307Z,13.00
2022-11-28T22:21:50.612Z,13.10
2022-11-28T22:24:09.317Z,13.10
2022-11-28T22:26:35.839Z,13.10
2022-11-28T22:29:02.331Z,13.10
2022-11-28T22:31:29.383Z,13.00
2022-11-28T22:33:55.851Z,13.00
2022-11-28T22:36:22.302Z,13.30
2022-11-28T22:38:48.768Z,13.20
2022-11-28T22:41:15.215Z,13.10
2022-11-28T22:43:41.680Z,13.20
2022-11-28T22:46:08.197Z,13.10
2022-11-28T22:51:15.033Z,13.20
2022-11-28T22:53:41.538Z,13.20
2022-11-28T22:56:08.030Z,13.30
2022-11-28T22:58:39.367Z,13.30
2022-11-28T23:01:08.728Z,13.10
2022-11-28T23:03:35.276Z,13.10
2022-11-28T23:06:01.756Z,13.10
2022-11-28T23:08:28.228Z,12.90
2022-11-28T23:10:54.723Z,13.00
2022-11-28T23:13:21.213Z,13.00
2022-11-28T23:15:52.663Z,13.00
2022-11-28T23:18:19.419Z,13.20
2022-11-28T23:20:45.890Z,13.00
2022-11-28T23:23:12.345Z,13.10
2022-11-28T23:25:38.795Z,13.10
2022-11-28T23:28:05.270Z,13.00
2022-11-28T23:30:31.778Z,13.10
2022-11-28T23:32:58.278Z,13.10
2022-11-28T23:35:24.775Z,13.20
2022-11-28T23:37:53.417Z,13.20
2022-11-28T23:40:19.884Z,13.20
2022-11-28T23:42:46.372Z,13.20
2022-11-28T23:45:12.848Z,13.20
2022-11-28T23:47:39.398Z,13.40
2022-11-28T23:50:05.863Z,13.40
2022-11-28T23:52:32.323Z,13.20
2022-11-28T23:54:58.800Z,13.00
2022-11-28T23:57:25.272Z,13.20
2022-11-28T23:59:51.734Z,13.20
